sensor_id;sensor_type;location;lat;lon;timestamp;P1;durP1;ratioP1;P2;durP2;ratioP2
54599;SDS011;40500;51.084;16.958;2022-11-27T13:12:30;15.10;;;10.40;;
54599;SDS011;40500;51.084;16.958;2022-11-27T13:31:13;16.10;;;10.70;;
54599;SDS011;40500;51.084;16.958;2022-11-27T13:33:56;19.30;;;11.70;;
54599;SDS011;40500;51.084;16.958;2022-11-27T13:36:33;19.50;;;11.00;;
54599;SDS011;40500;51.084;16.958;2022-11-27T13:50:27;18.80;;;11.00;;
54599;SDS011;40500;51.084;16.958;2022-11-27T13:53:00;17.40;;;11.20;;
54599;SDS011;40500;51.084;16.958;2022-11-27T13:55:38;16.30;;;9.50;;
54599;SDS011;40500;51.084;16.958;2022-11-27T13:58:27;21.00;;;10.40;;
54599;SDS011;40500;51.084;16.958;2022-11-27T14:01:15;17.60;;;10.20;;
54599;SDS011;40500;51.084;16.958;2022-11-27T14:03:49;16.90;;;9.20;;
54599;SDS011;40500;51.084;16.958;2022-11-27T14:06:28;17.70;;;10.50;;
54599;SDS011;40500;51.084;16.958;2022-11-27T14:09:01;26.70;;;11.80;;
54599;SDS011;40500;51.084;16.958;2022-11-27T14:11:45;17.50;;;11.20;;
54599;SDS011;40500;51.084;16.958;2022-11-27T14:14:27;14.70;;;9.40;;
54599;SDS011;40500;51.084;16.958;2022-11-27T14:17:02;21.80;;;12.80;;
54599;SDS011;40500;51.084;16.958;2022-11-27T14:19:39;20.40;;;12.00;;
54599;SDS011;40500;51.084;16.958;2022-11-27T14:22:28;21.80;;;12.10;;
54599;SDS011;40500;51.084;16.958;2022-11-27T14:25:27;20.10;;;11.90;;
54599;SDS011;40500;51.084;16.958;2022-11-27T14:28:05;26.40;;;12.40;;
54599;SDS011;40500;51.084;16.958;2022-11-27T14:30:45;19.80;;;11.60;;
54599;SDS011;40500;51.084;16.958;2022-11-27T14:33:21;21.30;;;11.30;;
54599;SDS011;40500;51.084;16.958;2022-11-27T14:35:55;20.90;;;11.70;;
54599;SDS011;40500;51.084;16.958;2022-11-27T14:38:30;22.40;;;13.00;;
54599;SDS011;40500;51.084;16.958;2022-11-27T14:41:07;22.90;;;12.70;;
54599;SDS011;40500;51.084;16.958;2022-11-27T14:43:43;21.60;;;12.50;;
54599;SDS011;40500;51.084;16.958;2022-11-27T14:46:20;21.70;;;12.60;;
54599;SDS011;40500;51.084;16.958;2022-11-27T14:48:53;17.30;;;9.40;;
54599;SDS011;40500;51.084;16.958;2022-11-27T14:51:29;26.20;;;14.60;;
54599;SDS011;40500;51.084;16.958;2022-11-27T14:54:08;28.20;;;14.70;;
54599;SDS011;40500;51.084;16.958;2022-11-27T14:56:45;29.50;;;14.70;;
54599;SDS011;40500;51.084;16.958;2022-11-27T14:59:19;24.70;;;13.70;;
54599;SDS011;40500;51.084;16.958;2022-11-27T15:01:58;22.80;;;12.50;;
54599;SDS011;40500;51.084;16.958;2022-11-27T15:04:35;25.30;;;13.90;;
54599;SDS011;40500;51.084;16.958;2022-11-27T15:07:14;25.60;;;14.50;;
54599;SDS011;40500;51.084;16.958;2022-11-27T15:09:50;28.00;;;15.00;;
54599;SDS011;40500;51.084;16.958;2022-11-27T15:12:25;28.40;;;15.10;;
54599;SDS011;40500;51.084;16.958;2022-11-27T15:15:00;25.30;;;14.00;;
54599;SDS011;40500;51.084;16.958;2022-11-27T15:17:35;24.80;;;14.10;;
54599;SDS011;40500;51.084;16.958;2022-11-27T15:20:12;26.00;;;15.00;;
54599;SDS011;40500;51.084;16.958;2022-11-27T15:22:55;22.80;;;11.80;;
54599;SDS011;40500;51.084;16.958;2022-11-27T15:25:32;29.70;;;16.60;;
54599;SDS011;40500;51.084;16.958;2022-11-27T15:28:22;27.00;;;14.70;;
54599;SDS011;40500;51.084;16.958;2022-11-27T15:30:59;25.70;;;14.80;;
54599;SDS011;40500;51.084;16.958;2022-11-27T15:33:32;28.00;;;15.30;;
54599;SDS011;40500;51.084;16.958;2022-11-27T15:39:21;24.90;;;13.70;;
54599;SDS011;40500;51.084;16.958;2022-11-27T15:42:11;34.10;;;18.10;;
54599;SDS011;40500;51.084;16.958;2022-11-27T15:44:53;28.80;;;16.80;;
54599;SDS011;40500;51.084;16.958;2022-11-27T15:47:29;31.10;;;16.60;;
54599;SDS011;40500;51.084;16.958;2022-11-27T15:50:05;36.00;;;17.20;;
54599;SDS011;40500;51.084;16.958;2022-11-27T15:52:42;32.00;;;18.80;;
54599;SDS011;40500;51.084;16.958;2022-11-27T15:55:14;29.40;;;15.80;;
54599;SDS011;40500;51.084;16.958;2022-11-27T15:57:45;32.50;;;16.90;;
54599;SDS011;40500;51.084;16.958;2022-11-27T16:00:18;31.10;;;17.20;;
54599;SDS011;40500;51.084;16.958;2022-11-27T16:02:54;27.50;;;15.30;;
54599;SDS011;40500;51.084;16.958;2022-11-27T16:05:25;32.90;;;17.80;;
54599;SDS011;40500;51.084;16.958;2022-11-27T16:07:57;36.50;;;17.70;;
54599;SDS011;40500;51.084;16.958;2022-11-27T16:10:28;32.70;;;17.90;;
54599;SDS011;40500;51.084;16.958;2022-11-27T16:13:00;34.90;;;18.60;;
54599;SDS011;40500;51.084;16.958;2022-11-27T16:15:32;29.20;;;15.10;;
54599;SDS011;40500;51.084;16.958;2022-11-27T16:18:04;36.40;;;19.70;;
54599;SDS011;40500;51.084;16.958;2022-11-27T16:20:36;43.50;;;23.10;;
54599;SDS011;40500;51.084;16.958;2022-11-27T16:23:07;34.20;;;17.40;;
54599;SDS011;40500;51.084;16.958;2022-11-27T16:25:39;33.20;;;17.60;;
54599;SDS011;40500;51.084;16.958;2022-11-27T16:28:11;39.00;;;19.00;;
54599;SDS011;40500;51.084;16.958;2022-11-27T16:30:45;27.50;;;15.70;;
54599;SDS011;40500;51.084;16.958;2022-11-27T16:33:17;34.50;;;18.20;;
54599;SDS011;40500;51.084;16.958;2022-11-27T16:35:49;33.40;;;18.30;;
54599;SDS011;40500;51.084;16.958;2022-11-27T16:38:21;36.50;;;19.50;;
54599;SDS011;40500;51.084;16.958;2022-11-27T16:40:57;38.40;;;18.90;;
54599;SDS011;40500;51.084;16.958;2022-11-27T16:43:31;34.80;;;17.80;;
54599;SDS011;40500;51.084;16.958;2022-11-27T16:46:06;31.80;;;18.10;;
54599;SDS011;40500;51.084;16.958;2022-11-27T16:48:42;36.40;;;19.20;;
54599;SDS011;40500;51.084;16.958;2022-11-27T16:51:15;33.70;;;17.30;;
54599;SDS011;40500;51.084;16.958;2022-11-27T16:53:49;32.50;;;16.50;;
54599;SDS011;40500;51.084;16.958;2022-11-27T16:56:23;34.90;;;18.30;;
54599;SDS011;40500;51.084;16.958;2022-11-27T16:58:57;36.50;;;19.00;;
54599;SDS011;40500;51.084;16.958;2022-11-27T17:01:32;36.10;;;19.00;;
54599;SDS011;40500;51.084;16.958;2022-11-27T17:04:04;37.00;;;18.20;;
54599;SDS011;40500;51.084;16.958;2022-11-27T17:06:38;36.80;;;20.20;;
54599;SDS011;40500;51.084;16.958;2022-11-27T17:09:10;37.90;;;19.40;;
54599;SDS011;40500;51.084;16.958;2022-11-27T17:11:43;34.00;;;18.50;;
54599;SDS011;40500;51.084;16.958;2022-11-27T17:14:17;33.40;;;19.10;;
54599;SDS011;40500;51.084;16.958;2022-11-27T17:16:51;44.10;;;22.10;;
54599;SDS011;40500;51.084;16.958;2022-11-27T17:19:26;42.80;;;21.50;;
54599;SDS011;40500;51.084;16.958;2022-11-27T17:21:59;46.10;;;22.60;;
54599;SDS011;40500;51.084;16.958;2022-11-27T17:24:31;39.60;;;20.80;;
54599;SDS011;40500;51.084;16.958;2022-11-27T17:27:04;37.50;;;19.10;;
54599;SDS011;40500;51.084;16.958;2022-11-27T17:29:38;47.70;;;23.30;;
54599;SDS011;40500;51.084;16.958;2022-11-27T17:32:11;36.30;;;20.60;;
54599;SDS011;40500;51.084;16.958;2022-11-27T17:34:42;43.90;;;22.40;;
54599;SDS011;40500;51.084;16.958;2022-11-27T17:37:15;33.80;;;16.70;;
54599;SDS011;40500;51.084;16.958;2022-11-27T17:39:47;46.40;;;22.20;;
54599;SDS011;40500;51.084;16.958;2022-11-27T17:42:20;37.70;;;16.90;;
54599;SDS011;40500;51.084;16.958;2022-11-27T17:44:52;37.60;;;19.20;;
54599;SDS011;40500;51.084;16.958;2022-11-27T17:47:24;36.00;;;18.30;;
54599;SDS011;40500;51.084;16.958;2022-11-27T17:49:55;48.80;;;23.80;;
54599;SDS011;40500;51.084;16.958;2022-11-27T17:52:29;34.40;;;18.70;;
54599;SDS011;40500;51.084;16.958;2022-11-27T17:55:01;38.80;;;19.60;;
54599;SDS011;40500;51.084;16.958;2022-11-27T17:57:33;37.90;;;19.10;;
54599;SDS011;40500;51.084;16.958;2022-11-27T18:00:06;43.90;;;19.80;;
54599;SDS011;40500;51.084;16.958;2022-11-27T18:02:40;31.80;;;18.00;;
54599;SDS011;40500;51.084;16.958;2022-11-27T18:05:12;36.90;;;18.10;;
54599;SDS011;40500;51.084;16.958;2022-11-27T18:07:45;37.40;;;20.10;;
54599;SDS011;40500;51.084;16.958;2022-11-27T18:10:17;38.50;;;16.80;;
54599;SDS011;40500;51.084;16.958;2022-11-27T18:12:49;35.40;;;17.90;;
54599;SDS011;40500;51.084;16.958;2022-11-27T18:15:20;34.40;;;17.10;;
54599;SDS011;40500;51.084;16.958;2022-11-27T18:17:52;32.20;;;15.90;;
54599;SDS011;40500;51.084;16.958;2022-11-27T18:20:24;27.20;;;14.80;;
54599;SDS011;40500;51.084;16.958;2022-11-27T18:22:56;31.90;;;17.00;;
54599;SDS011;40500;51.084;16.958;2022-11-27T18:25:28;37.90;;;18.20;;
54599;SDS011;40500;51.084;16.958;2022-11-27T18:28:00;36.20;;;17.60;;
54599;SDS011;40500;51.084;16.958;2022-11-27T18:30:31;28.00;;;15.30;;
54599;SDS011;40500;51.084;16.958;2022-11-27T18:33:04;32.30;;;17.30;;
54599;SDS011;40500;51.084;16.958;2022-11-27T18:35:38;28.10;;;13.80;;
54599;SDS011;40500;51.084;16.958;2022-11-27T18:38:11;32.80;;;15.90;;
54599;SDS011;40500;51.084;16.958;2022-11-27T18:40:42;25.10;;;14.20;;
54599;SDS011;40500;51.084;16.958;2022-11-27T18:43:14;28.40;;;14.70;;
54599;SDS011;40500;51.084;16.958;2022-11-27T18:45:46;35.00;;;17.20;;
54599;SDS011;40500;51.084;16.958;2022-11-27T18:48:18;30.40;;;15.40;;
54599;SDS011;40500;51.084;16.958;2022-11-27T18:50:50;30.00;;;15.80;;
54599;SDS011;40500;51.084;16.958;2022-11-27T18:53:21;30.80;;;15.80;;
54599;SDS011;40500;51.084;16.958;2022-11-27T18:55:53;29.70;;;14.80;;
54599;SDS011;40500;51.084;16.958;2022-11-27T18:58:31;24.80;;;14.20;;
54599;SDS011;40500;51.084;16.958;2022-11-27T19:01:06;32.30;;;16.70;;
54599;SDS011;40500;51.084;16.958;2022-11-27T19:03:40;34.10;;;17.70;;
54599;SDS011;40500;51.084;16.958;2022-11-27T19:06:13;32.00;;;17.70;;
54599;SDS011;40500;51.084;16.958;2022-11-27T19:08:45;35.50;;;17.70;;
54599;SDS011;40500;51.084;16.958;2022-11-27T19:11:18;24.10;;;13.40;;
54599;SDS011;40500;51.084;16.958;2022-11-27T19:13:52;45.70;;;21.30;;
54599;SDS011;40500;51.084;16.958;2022-11-27T19:16:26;32.30;;;17.40;;
54599;SDS011;40500;51.084;16.958;2022-11-27T19:19:00;37.70;;;18.90;;
54599;SDS011;40500;51.084;16.958;2022-11-27T19:21:33;40.00;;;19.20;;
54599;SDS011;40500;51.084;16.958;2022-11-27T19:24:05;34.00;;;18.00;;
54599;SDS011;40500;51.084;16.958;2022-11-27T19:26:37;34.30;;;17.50;;
54599;SDS011;40500;51.084;16.958;2022-11-27T19:29:09;42.20;;;19.50;;
54599;SDS011;40500;51.084;16.958;2022-11-27T19:31:42;37.40;;;18.10;;
54599;SDS011;40500;51.084;16.958;2022-11-27T19:34:13;33.70;;;17.60;;
54599;SDS011;40500;51.084;16.958;2022-11-27T19:36:45;36.90;;;18.50;;
54599;SDS011;40500;51.084;16.958;2022-11-27T19:39:18;44.80;;;19.70;;
54599;SDS011;40500;51.084;16.958;2022-11-27T19:41:50;38.40;;;18.30;;
54599;SDS011;40500;51.084;16.958;2022-11-27T19:44:22;40.20;;;18.40;;
54599;SDS011;40500;51.084;16.958;2022-11-27T19:46:55;44.60;;;21.10;;
54599;SDS011;40500;51.084;16.958;2022-11-27T19:49:26;41.80;;;18.60;;
54599;SDS011;40500;51.084;16.958;2022-11-27T19:51:58;32.80;;;16.10;;
54599;SDS011;40500;51.084;16.958;2022-11-27T19:54:30;36.90;;;17.40;;
54599;SDS011;40500;51.084;16.958;2022-11-27T19:57:03;50.00;;;20.40;;
54599;SDS011;40500;51.084;16.958;2022-11-27T19:59:38;38.60;;;17.20;;
54599;SDS011;40500;51.084;16.958;2022-11-27T20:02:10;38.10;;;17.40;;
54599;SDS011;40500;51.084;16.958;2022-11-27T20:04:42;39.70;;;17.40;;
54599;SDS011;40500;51.084;16.958;2022-11-27T20:07:14;38.80;;;18.90;;
54599;SDS011;40500;51.084;16.958;2022-11-27T20:09:46;36.60;;;16.90;;
54599;SDS011;40500;51.084;16.958;2022-11-27T20:12:19;37.80;;;17.00;;
54599;SDS011;40500;51.084;16.958;2022-11-27T20:14:51;35.30;;;16.90;;
54599;SDS011;40500;51.084;16.958;2022-11-27T20:17:25;46.60;;;21.30;;
54599;SDS011;40500;51.084;16.958;2022-11-27T20:19:57;47.60;;;21.10;;
54599;SDS011;40500;51.084;16.958;2022-11-27T20:22:29;54.70;;;22.80;;
54599;SDS011;40500;51.084;16.958;2022-11-27T20:25:02;41.90;;;18.30;;
54599;SDS011;40500;51.084;16.958;2022-11-27T20:27:49;41.90;;;19.10;;
54599;SDS011;40500;51.084;16.958;2022-11-27T20:30:21;47.30;;;21.40;;
54599;SDS011;40500;51.084;16.958;2022-11-27T20:32:53;50.20;;;22.10;;
54599;SDS011;40500;51.084;16.958;2022-11-27T20:35:25;48.20;;;20.50;;
54599;SDS011;40500;51.084;16.958;2022-11-27T20:37:57;49.80;;;23.80;;
54599;SDS011;40500;51.084;16.958;2022-11-27T20:40:28;51.70;;;23.90;;
54599;SDS011;40500;51.084;16.958;2022-11-27T20:43:01;62.70;;;26.20;;
54599;SDS011;40500;51.084;16.958;2022-11-27T20:45:36;55.20;;;24.10;;
54599;SDS011;40500;51.084;16.958;2022-11-27T20:48:08;60.00;;;25.10;;
54599;SDS011;40500;51.084;16.958;2022-11-27T20:50:40;56.80;;;23.60;;
54599;SDS011;40500;51.084;16.958;2022-11-27T20:53:18;56.70;;;22.70;;
54599;SDS011;40500;51.084;16.958;2022-11-27T20:55:50;63.50;;;27.50;;
54599;SDS011;40500;51.084;16.958;2022-11-27T20:58:29;56.80;;;24.60;;
54599;SDS011;40500;51.084;16.958;2022-11-27T21:01:11;57.40;;;22.80;;
54599;SDS011;40500;51.084;16.958;2022-11-27T21:03:44;39.00;;;18.50;;
54599;SDS011;40500;51.084;16.958;2022-11-27T21:06:17;81.90;;;31.80;;
54599;SDS011;40500;51.084;16.958;2022-11-27T21:08:50;63.70;;;26.40;;
54599;SDS011;40500;51.084;16.958;2022-11-27T21:11:26;55.80;;;24.20;;
54599;SDS011;40500;51.084;16.958;2022-11-27T21:14:01;52.30;;;21.40;;
54599;SDS011;40500;51.084;16.958;2022-11-27T21:16:35;66.20;;;25.70;;
54599;SDS011;40500;51.084;16.958;2022-11-27T21:19:11;57.60;;;25.00;;
54599;SDS011;40500;51.084;16.958;2022-11-27T21:21:45;61.90;;;26.50;;
54599;SDS011;40500;51.084;16.958;2022-11-27T21:24:18;59.30;;;26.60;;
54599;SDS011;40500;51.084;16.958;2022-11-27T21:26:50;59.90;;;25.30;;
54599;SDS011;40500;51.084;16.958;2022-11-27T21:29:21;61.20;;;27.20;;
54599;SDS011;40500;51.084;16.958;2022-11-27T21:31:55;66.30;;;26.00;;
54599;SDS011;40500;51.084;16.958;2022-11-27T21:34:26;49.80;;;23.60;;
54599;SDS011;40500;51.084;16.958;2022-11-27T21:36:59;43.50;;;20.00;;
54599;SDS011;40500;51.084;16.958;2022-11-27T21:39:31;67.40;;;26.60;;
54599;SDS011;40500;51.084;16.958;2022-11-27T21:42:03;60.10;;;24.80;;
54599;SDS011;40500;51.084;16.958;2022-11-27T21:44:35;64.50;;;27.60;;
54599;SDS011;40500;51.084;16.958;2022-11-27T21:47:09;64.10;;;27.00;;
54599;SDS011;40500;51.084;16.958;2022-11-27T21:49:41;45.50;;;18.50;;
54599;SDS011;40500;51.084;16.958;2022-11-27T21:52:12;51.30;;;22.40;;
54599;SDS011;40500;51.084;16.958;2022-11-27T21:54:44;48.20;;;22.30;;
54599;SDS011;40500;51.084;16.958;2022-11-27T21:57:15;56.40;;;24.70;;
54599;SDS011;40500;51.084;16.958;2022-11-27T21:59:49;60.50;;;25.70;;
54599;SDS011;40500;51.084;16.958;2022-11-27T22:02:21;57.80;;;27.20;;
54599;SDS011;40500;51.084;16.958;2022-11-27T22:04:53;64.90;;;27.60;;
54599;SDS011;40500;51.084;16.958;2022-11-27T22:07:24;47.00;;;21.90;;
54599;SDS011;40500;51.084;16.958;2022-11-27T22:09:56;48.90;;;24.40;;
54599;SDS011;40500;51.084;16.958;2022-11-27T22:12:28;56.00;;;25.50;;
54599;SDS011;40500;51.084;16.958;2022-11-27T22:14:59;57.80;;;27.00;;
54599;SDS011;40500;51.084;16.958;2022-11-27T22:17:31;55.10;;;23.90;;
54599;SDS011;40500;51.084;16.958;2022-11-27T22:20:07;56.30;;;25.80;;
54599;SDS011;40500;51.084;16.958;2022-11-27T22:22:40;44.20;;;20.00;;
54599;SDS011;40500;51.084;16.958;2022-11-27T22:25:11;57.50;;;26.60;;
54599;SDS011;40500;51.084;16.958;2022-11-27T22:27:45;53.70;;;25.30;;
54599;SDS011;40500;51.084;16.958;2022-11-27T22:30:17;70.60;;;30.20;;
54599;SDS011;40500;51.084;16.958;2022-11-27T22:32:50;48.50;;;21.30;;
54599;SDS011;40500;51.084;16.958;2022-11-27T22:35:22;53.60;;;26.40;;
54599;SDS011;40500;51.084;16.958;2022-11-27T22:37:54;59.00;;;27.80;;
54599;SDS011;40500;51.084;16.958;2022-11-27T22:40:26;57.30;;;27.00;;
54599;SDS011;40500;51.084;16.958;2022-11-27T22:42:57;52.10;;;24.30;;
54599;SDS011;40500;51.084;16.958;2022-11-27T22:45:30;46.70;;;23.10;;
54599;SDS011;40500;51.084;16.958;2022-11-27T22:48:04;42.40;;;20.80;;
54599;SDS011;40500;51.084;16.958;2022-11-27T22:50:36;50.80;;;25.20;;
54599;SDS011;40500;51.084;16.958;2022-11-27T22:53:07;54.40;;;25.70;;
54599;SDS011;40500;51.084;16.958;2022-11-27T22:55:39;50.70;;;24.50;;
54599;SDS011;40500;51.084;16.958;2022-11-27T22:58:10;56.30;;;26.80;;
54599;SDS011;40500;51.084;16.958;2022-11-27T23:00:42;53.90;;;24.10;;
54599;SDS011;40500;51.084;16.958;2022-11-27T23:03:14;51.40;;;24.50;;
54599;SDS011;40500;51.084;16.958;2022-11-27T23:05:45;49.50;;;24.30;;
54599;SDS011;40500;51.084;16.958;2022-11-27T23:08:17;54.60;;;27.10;;
54599;SDS011;40500;51.084;16.958;2022-11-27T23:10:49;58.40;;;28.50;;
54599;SDS011;40500;51.084;16.958;2022-11-27T23:13:21;46.60;;;22.70;;
54599;SDS011;40500;51.084;16.958;2022-11-27T23:15:52;50.80;;;25.30;;
54599;SDS011;40500;51.084;16.958;2022-11-27T23:18:24;50.70;;;25.30;;
54599;SDS011;40500;51.084;16.958;2022-11-27T23:20:55;49.30;;;25.50;;
54599;SDS011;40500;51.084;16.958;2022-11-27T23:23:28;45.30;;;24.20;;
54599;SDS011;40500;51.084;16.958;2022-11-27T23:26:02;42.20;;;21.50;;
54599;SDS011;40500;51.084;16.958;2022-11-27T23:28:34;51.60;;;25.00;;
54599;SDS011;40500;51.084;16.958;2022-11-27T23:31:08;49.90;;;23.80;;
54599;SDS011;40500;51.084;16.958;2022-11-27T23:33:59;43.80;;;22.00;;
54599;SDS011;40500;51.084;16.958;2022-11-27T23:36:32;49.20;;;24.00;;
54599;SDS011;40500;51.084;16.958;2022-11-27T23:39:05;53.70;;;25.60;;
54599;SDS011;40500;51.084;16.958;2022-11-27T23:41:37;52.20;;;26.60;;
54599;SDS011;40500;51.084;16.958;2022-11-27T23:44:09;49.40;;;24.30;;
54599;SDS011;40500;51.084;16.958;2022-11-27T23:46:43;48.80;;;24.60;;
54599;SDS011;40500;51.084;16.958;2022-11-27T23:49:15;47.50;;;22.90;;
54599;SDS011;40500;51.084;16.958;2022-11-27T23:51:47;45.50;;;24.30;;
54599;SDS011;40500;51.084;16.958;2022-11-27T23:54:20;67.10;;;31.90;;
54599;SDS011;40500;51.084;16.958;2022-11-27T23:56:54;59.00;;;29.10;;
54599;SDS011;40500;51.084;16.958;2022-11-27T23:59:26;50.30;;;24.30;;
